This is the latest recevied weather packets stored in our database for station/object DL2GFH-3. If no packets are shown the sender has not sent any weather packets the latest 1 day(s).
| Time | Temp. | Humidity | Pressure | Rain* | Wind** | Luminosity | Snow |
|---|---|---|---|---|---|---|---|
| 1778075467 | 19.44° C | 37% | 1008.4 hPa | - | - | - | - |
| 1778073656 | 20° C | 35% | 1007.9 hPa | - | - | - | - |
| 1778071845 | 21.11° C | 34% | 1007.4 hPa | - | - | - | - |
| 1778069129 | 22.22° C | 32% | 1007 hPa | - | - | - | - |
| 1778064602 | 20.56° C | 34% | 1007.1 hPa | - | - | - | - |
| 1778062791 | 20.56° C | 35% | 1007.4 hPa | - | - | - | - |
| 1778060980 | 20.56° C | 34% | 1007.3 hPa | - | - | - | - |
| 1778058264 | 21.67° C | 32% | 1007.3 hPa | - | - | - | - |
| 1778056453 | 22.22° C | 31% | 1007.1 hPa | - | - | - | - |
| 1778054642 | 22.78° C | 30% | 1007.1 hPa | - | - | - | - |
| 1778053737 | 22.78° C | 29% | 1006.9 hPa | - | - | - | - |
| 1778052832 | 23.89° C | 29% | 1007.1 hPa | - | - | - | - |
| 1778051926 | 22.22° C | 31% | 1007.2 hPa | - | - | - | - |
| 1778050115 | 18.33° C | 37% | 1007.4 hPa | - | - | - | - |
| 1778047399 | 17.22° C | 39% | 1007.4 hPa | - | - | - | - |
| 1778046493 | 17.22° C | 40% | 1007.5 hPa | - | - | - | - |
| 1778045588 | 17.22° C | 40% | 1007.6 hPa | - | - | - | - |
| 1778043777 | 17.22° C | 40% | 1007.7 hPa | - | - | - | - |
| 1778042872 | 17.22° C | 39% | 1007.5 hPa | - | - | - | - |
| 1778041966 | 17.78° C | 39% | 1007.7 hPa | - | - | - | - |
| 1778041061 | 18.33° C | 38% | 1007.9 hPa | - | - | - | - |
| 1778039250 | 20° C | 35% | 1008 hPa | - | - | - | - |
| 1778037439 | 22.22° C | 31% | 1008 hPa | - | - | - | - |
| 1778036534 | 16.67° C | 41% | 1008.3 hPa | - | - | - | - |
| 1778035628 | 16.67° C | 41% | 1008.7 hPa | - | - | - | - |
* Rain since midnight (hover to see other rain measurements)
** Current wind speed in m/s (hover to see current wind gust speed)